Time;durP1;ratioP1;P1;durP2;ratioP2;P2;SDS_P1;SDS_P2;PMS_P1;PMS_P2;Temp;Humidity;BMP_temperature;BMP_pressure;BME280_temperature;BME280_humidity;BME280_pressure;Samples;Min_cycle;Max_cycle;Signal;HPM_P1;HPM_P2
2023/10/06 00:01:21;;;;;;;9.93;4.70;;;;;;;;;;4987188;28;25091;-71
2023/10/06 00:03:47;;;;;;;11.32;4.95;;;;;;;;;;4991106;28;25092;-68
2023/10/06 00:06:22;;;;;;;10.73;4.93;;;;;;;;;;4998200;28;25175;-72
2023/10/06 00:08:51;;;;;;;13.10;4.38;;;;;;;;;;4993728;28;25100;-71
2023/10/06 00:11:28;;;;;;;13.30;5.22;;;;;;;;;;4991046;28;25079;-69
2023/10/06 00:14:00;;;;;;;8.07;4.60;;;;;;;;;;4983043;28;25089;-71
2023/10/06 00:16:26;;;;;;;13.75;5.25;;;;;;;;;;4994738;28;25059;-70
2023/10/06 00:18:59;;;;;;;17.02;5.53;;;;;;;;;;4995055;28;25054;-73
2023/10/06 00:21:25;;;;;;;15.98;5.25;;;;;;;;;;4982309;28;25022;-70
2023/10/06 00:23:52;;;;;;;12.52;4.90;;;;;;;;;;4976466;28;25063;-72
2023/10/06 00:26:18;;;;;;;14.95;4.70;;;;;;;;;;4992694;28;25167;-70
2023/10/06 00:28:47;;;;;;;12.93;4.60;;;;;;;;;;4990810;28;25106;-69
2023/10/06 00:31:14;;;;;;;15.52;5.00;;;;;;;;;;4955535;28;25132;-72
2023/10/06 00:33:42;;;;;;;12.25;5.53;;;;;;;;;;4991379;28;25096;-72
2023/10/06 00:36:12;;;;;;;9.65;4.20;;;;;;;;;;4990041;28;25107;-73
2023/10/06 00:38:40;;;;;;;11.20;3.95;;;;;;;;;;4984120;28;25143;-72
2023/10/06 00:41:14;;;;;;;13.05;4.82;;;;;;;;;;4985033;28;25063;-72
2023/10/06 00:43:40;;;;;;;13.40;4.10;;;;;;;;;;4982501;28;25057;-70
2023/10/06 00:46:09;;;;;;;11.65;4.05;;;;;;;;;;4984144;28;25068;-69
2023/10/06 00:48:35;;;;;;;9.20;3.65;;;;;;;;;;4987692;28;25082;-73
2023/10/06 00:51:04;;;;;;;11.05;4.30;;;;;;;;;;4986579;28;25122;-75
2023/10/06 00:53:33;;;;;;;10.77;4.28;;;;;;;;;;4988605;28;25049;-74
2023/10/06 00:56:08;;;;;;;11.07;4.30;;;;;;;;;;4987087;28;25076;-72
2023/10/06 00:58:35;;;;;;;11.27;3.80;;;;;;;;;;4986319;28;25059;-69
2023/10/06 01:01:07;;;;;;;9.35;3.50;;;;;;;;;;4971995;28;25175;-71
2023/10/06 01:03:38;;;;;;;11.02;3.63;;;;;;;;;;4982147;28;25061;-70
2023/10/06 01:06:12;;;;;;;12.45;3.55;;;;;;;;;;4981329;28;25066;-74
2023/10/06 01:08:38;;;;;;;11.70;4.22;;;;;;;;;;4979851;28;25061;-71
2023/10/06 01:11:11;;;;;;;10.80;4.43;;;;;;;;;;4979459;28;25057;-70
2023/10/06 01:13:37;;;;;;;9.52;3.67;;;;;;;;;;4990513;28;25063;-71
2023/10/06 01:16:11;;;;;;;9.02;3.50;;;;;;;;;;4992308;28;25090;-71
2023/10/06 01:18:41;;;;;;;17.63;4.25;;;;;;;;;;4987384;28;25046;-71
2023/10/06 01:21:16;;;;;;;9.85;3.75;;;;;;;;;;4980799;28;25075;-71
2023/10/06 01:23:42;;;;;;;13.48;4.38;;;;;;;;;;4983423;28;25100;-72
2023/10/06 01:26:09;;;;;;;10.93;3.90;;;;;;;;;;4995474;28;25120;-72
2023/10/06 01:28:35;;;;;;;10.55;3.65;;;;;;;;;;4985884;28;25074;-71
2023/10/06 01:31:02;;;;;;;12.48;3.65;;;;;;;;;;4977255;28;25120;-71
2023/10/06 01:33:29;;;;;;;12.55;3.50;;;;;;;;;;4992825;28;25161;-71
2023/10/06 01:35:59;;;;;;;13.85;3.17;;;;;;;;;;4998044;28;25075;-71
2023/10/06 01:38:26;;;;;;;9.90;3.67;;;;;;;;;;4996828;28;25056;-71
2023/10/06 01:40:56;;;;;;;10.52;4.15;;;;;;;;;;4970712;28;25050;-73
2023/10/06 01:43:29;;;;;;;11.98;2.75;;;;;;;;;;4980211;28;25087;-73
2023/10/06 01:45:55;;;;;;;11.75;3.85;;;;;;;;;;4979681;28;25113;-70
2023/10/06 01:50:50;;;;;;;11.48;3.90;;;;;;;;;;4979409;28;25050;-71
2023/10/06 01:53:20;;;;;;;13.52;3.95;;;;;;;;;;4967648;28;25093;-69
2023/10/06 01:55:49;;;;;;;12.13;4.43;;;;;;;;;;4986163;28;25054;-70
2023/10/06 01:58:15;;;;;;;14.48;4.05;;;;;;;;;;4988355;28;25159;-71
2023/10/06 02:00:41;;;;;;;11.05;4.15;;;;;;;;;;4992668;28;25081;-70
2023/10/06 02:03:10;;;;;;;12.90;4.65;;;;;;;;;;4983328;28;25133;-70
2023/10/06 02:05:39;;;;;;;9.55;4.22;;;;;;;;;;4989550;28;25085;-72
2023/10/06 02:08:09;;;;;;;10.40;4.53;;;;;;;;;;4984125;28;25068;-74
2023/10/06 02:10:35;;;;;;;15.95;5.32;;;;;;;;;;4984169;28;25068;-69
2023/10/06 02:13:01;;;;;;;12.18;4.80;;;;;;;;;;4981090;28;25136;-70
2023/10/06 02:15:27;;;;;;;15.98;5.32;;;;;;;;;;4981761;28;25071;-70
2023/10/06 02:17:53;;;;;;;16.90;5.15;;;;;;;;;;4989101;28;25083;-69
2023/10/06 02:22:57;;;;;;;14.02;5.53;;;;;;;;;;4982258;28;25078;-71
2023/10/06 02:25:25;;;;;;;17.10;6.38;;;;;;;;;;4969637;28;25090;-70
2023/10/06 02:27:52;;;;;;;16.80;6.00;;;;;;;;;;4962112;28;25094;-70
2023/10/06 02:30:19;;;;;;;14.13;5.75;;;;;;;;;;4970695;28;25078;-71
2023/10/06 02:32:46;;;;;;;10.13;5.80;;;;;;;;;;4983724;28;25118;-72
2023/10/06 02:35:12;;;;;;;13.88;6.00;;;;;;;;;;4985076;28;25063;-70
2023/10/06 02:37:39;;;;;;;21.23;6.45;;;;;;;;;;4980513;28;25189;-73
2023/10/06 02:40:11;;;;;;;19.42;6.60;;;;;;;;;;4980832;28;25082;-74
2023/10/06 02:43:13;;;;;;;23.75;6.15;;;;;;;;;;4978559;28;25047;-70
2023/10/06 02:45:40;;;;;;;16.00;6.55;;;;;;;;;;4973523;28;25090;-71
2023/10/06 02:48:14;;;;;;;14.73;6.70;;;;;;;;;;4960242;28;25054;-74
2023/10/06 02:50:44;;;;;;;22.08;7.60;;;;;;;;;;4957221;28;25067;-72
2023/10/06 02:53:13;;;;;;;14.15;6.15;;;;;;;;;;4963293;28;25059;-70
2023/10/06 02:55:43;;;;;;;17.88;7.53;;;;;;;;;;4979761;28;25050;-69
2023/10/06 02:58:09;;;;;;;17.65;6.78;;;;;;;;;;4976212;28;25057;-73
2023/10/06 03:00:36;;;;;;;10.50;6.18;;;;;;;;;;4979655;28;25072;-72
2023/10/06 03:03:03;;;;;;;17.85;6.90;;;;;;;;;;4960893;28;25100;-72
2023/10/06 03:05:32;;;;;;;19.77;7.22;;;;;;;;;;4979226;28;25107;-69
2023/10/06 03:08:00;;;;;;;19.83;6.63;;;;;;;;;;4958107;28;25076;-70
2023/10/06 03:10:30;;;;;;;18.17;6.97;;;;;;;;;;4981224;28;25151;-71
2023/10/06 03:12:57;;;;;;;14.43;5.93;;;;;;;;;;4961098;28;25083;-72
2023/10/06 03:15:36;;;;;;;14.77;6.60;;;;;;;;;;4983720;28;25106;-70
2023/10/06 03:18:03;;;;;;;16.58;6.72;;;;;;;;;;4975934;28;25074;-70
2023/10/06 03:20:48;;;;;;;12.68;5.55;;;;;;;;;;4978951;28;25058;-71
2023/10/06 03:23:38;;;;;;;17.63;6.82;;;;;;;;;;4978456;28;25069;-70
2023/10/06 03:26:04;;;;;;;12.73;5.75;;;;;;;;;;4978077;28;25057;-73
2023/10/06 03:28:36;;;;;;;14.00;6.93;;;;;;;;;;4977953;28;25131;-71
2023/10/06 03:33:44;;;;;;;15.70;6.72;;;;;;;;;;4980015;28;25074;-71
2023/10/06 03:36:11;;;;;;;13.20;6.88;;;;;;;;;;4974319;28;25046;-73
2023/10/06 03:38:42;;;;;;;15.50;6.30;;;;;;;;;;4983293;28;25072;-71
2023/10/06 03:41:25;;;;;;;19.37;6.67;;;;;;;;;;4977879;28;25083;-75
2023/10/06 03:43:53;;;;;;;18.02;6.45;;;;;;;;;;4971441;28;25065;-71
2023/10/06 03:46:19;;;;;;;14.73;5.53;;;;;;;;;;4977289;28;25086;-72
2023/10/06 03:48:48;;;;;;;11.50;6.45;;;;;;;;;;4971311;28;25126;-74
2023/10/06 03:51:15;;;;;;;13.38;6.40;;;;;;;;;;4957693;28;25157;-73
2023/10/06 03:53:41;;;;;;;10.20;6.35;;;;;;;;;;4973433;28;25071;-70
2023/10/06 03:56:08;;;;;;;10.98;6.55;;;;;;;;;;4980320;28;25072;-71
2023/10/06 03:58:34;;;;;;;14.95;6.40;;;;;;;;;;4967528;28;25118;-72
2023/10/06 04:01:08;;;;;;;15.90;5.85;;;;;;;;;;4960982;28;25063;-72
2023/10/06 04:03:34;;;;;;;13.77;5.80;;;;;;;;;;4976271;28;25066;-71
2023/10/06 04:06:04;;;;;;;11.52;5.03;;;;;;;;;;4972888;28;25083;-71
2023/10/06 04:08:30;;;;;;;14.73;6.35;;;;;;;;;;4969607;28;25116;-71
2023/10/06 04:10:59;;;;;;;14.07;6.43;;;;;;;;;;4962945;28;25062;-69
2023/10/06 04:13:26;;;;;;;16.23;6.35;;;;;;;;;;4977431;28;25085;-72
2023/10/06 04:15:52;;;;;;;13.25;6.03;;;;;;;;;;4973618;28;25054;-69
2023/10/06 04:18:21;;;;;;;11.80;5.25;;;;;;;;;;4955126;28;25159;-70
2023/10/06 04:20:47;;;;;;;11.35;5.85;;;;;;;;;;4980243;28;25073;-70
2023/10/06 04:23:17;;;;;;;14.55;5.97;;;;;;;;;;4967455;28;25067;-74
2023/10/06 04:25:43;;;;;;;13.95;5.65;;;;;;;;;;4977626;28;25050;-72
2023/10/06 04:28:11;;;;;;;9.98;5.47;;;;;;;;;;4964088;28;25099;-71
2023/10/06 04:30:37;;;;;;;23.73;6.85;;;;;;;;;;4977906;28;25061;-69
2023/10/06 04:33:09;;;;;;;14.43;5.68;;;;;;;;;;4960150;28;25175;-70
2023/10/06 04:35:35;;;;;;;14.32;6.28;;;;;;;;;;4979037;28;25074;-70
2023/10/06 04:38:03;;;;;;;20.17;6.65;;;;;;;;;;4972694;28;25062;-73
2023/10/06 04:40:29;;;;;;;9.88;5.40;;;;;;;;;;4976871;28;25151;-71
2023/10/06 04:42:56;;;;;;;12.38;7.03;;;;;;;;;;4980232;28;25071;-69
2023/10/06 04:45:23;;;;;;;16.70;6.00;;;;;;;;;;4979485;28;25080;-71
2023/10/06 04:47:49;;;;;;;13.55;7.43;;;;;;;;;;4967333;28;25067;-73
2023/10/06 04:50:16;;;;;;;19.25;6.25;;;;;;;;;;4978117;28;25056;-72
2023/10/06 04:52:46;;;;;;;15.70;6.57;;;;;;;;;;4959784;28;25065;-70
2023/10/06 04:55:13;;;;;;;14.20;6.43;;;;;;;;;;4979309;28;25073;-71
2023/10/06 04:57:40;;;;;;;13.88;6.20;;;;;;;;;;4963784;28;25123;-71
2023/10/06 05:00:13;;;;;;;21.20;7.20;;;;;;;;;;4997458;28;25072;-75
2023/10/06 05:02:42;;;;;;;16.60;6.32;;;;;;;;;;5007809;28;25059;-75
2023/10/06 05:05:09;;;;;;;15.73;7.47;;;;;;;;;;4996359;28;25092;-69
2023/10/06 05:07:37;;;;;;;19.80;8.63;;;;;;;;;;4987847;28;25154;-72
2023/10/06 05:10:03;;;;;;;17.17;7.95;;;;;;;;;;4994320;28;25088;-73
2023/10/06 05:12:32;;;;;;;16.45;7.82;;;;;;;;;;4987838;28;25065;-74
2023/10/06 05:14:58;;;;;;;12.85;6.72;;;;;;;;;;4983748;28;25061;-71
2023/10/06 05:17:24;;;;;;;20.05;8.82;;;;;;;;;;4984379;28;25078;-71
2023/10/06 05:19:50;;;;;;;16.00;6.90;;;;;;;;;;4965465;28;25046;-73
2023/10/06 05:22:17;;;;;;;16.40;7.32;;;;;;;;;;4978775;28;25082;-73
2023/10/06 05:24:43;;;;;;;18.73;7.07;;;;;;;;;;4984365;28;25109;-69
2023/10/06 05:27:09;;;;;;;14.98;7.10;;;;;;;;;;4978993;28;25120;-69
2023/10/06 05:29:36;;;;;;;13.02;7.60;;;;;;;;;;4964590;28;25065;-69
2023/10/06 05:32:05;;;;;;;15.02;7.72;;;;;;;;;;4980731;28;25077;-70
2023/10/06 05:34:31;;;;;;;15.80;7.18;;;;;;;;;;4976511;28;25055;-72
2023/10/06 05:36:59;;;;;;;15.70;7.18;;;;;;;;;;4986570;28;25093;-70
2023/10/06 05:39:28;;;;;;;21.92;7.85;;;;;;;;;;4987197;28;25125;-71
2023/10/06 05:41:54;;;;;;;15.75;7.57;;;;;;;;;;4990266;28;25057;-72
2023/10/06 05:44:21;;;;;;;17.40;8.10;;;;;;;;;;4991680;28;25142;-71
2023/10/06 05:46:47;;;;;;;17.95;7.28;;;;;;;;;;4968833;28;25076;-74
2023/10/06 05:49:13;;;;;;;14.10;6.43;;;;;;;;;;4990768;28;25065;-69
2023/10/06 05:51:39;;;;;;;15.35;6.65;;;;;;;;;;4972841;28;25070;-71
2023/10/06 05:54:12;;;;;;;13.93;6.68;;;;;;;;;;4982583;28;25039;-73
2023/10/06 05:56:42;;;;;;;;;;;;;;;;;;4979278;28;25153;-72
2023/10/06 05:59:09;;;;;;;14.10;6.55;;;;;;;;;;4976634;28;24073;-71
2023/10/06 06:01:35;;;;;;;18.55;6.88;;;;;;;;;;4986641;28;25099;-70
2023/10/06 06:04:09;;;;;;;9.82;5.60;;;;;;;;;;4985553;28;25105;-70
2023/10/06 06:06:37;;;;;;;13.43;6.60;;;;;;;;;;4989236;28;25158;-70
2023/10/06 06:09:13;;;;;;;10.90;5.60;;;;;;;;;;4986048;28;25069;-70
2023/10/06 06:11:39;;;;;;;13.05;6.13;;;;;;;;;;4994471;28;25121;-70
2023/10/06 06:14:05;;;;;;;19.15;5.45;;;;;;;;;;4985037;28;25094;-74
2023/10/06 06:16:32;;;;;;;15.60;6.18;;;;;;;;;;4977795;28;25073;-69
2023/10/06 06:18:58;;;;;;;14.75;5.60;;;;;;;;;;4977998;28;25054;-70
2023/10/06 06:21:27;;;;;;;13.90;5.57;;;;;;;;;;4984524;28;25138;-71
2023/10/06 06:23:57;;;;;;;17.42;5.70;;;;;;;;;;4988120;28;25086;-73
2023/10/06 06:26:23;;;;;;;16.20;5.55;;;;;;;;;;4996387;28;25078;-69
2023/10/06 06:28:49;;;;;;;18.02;5.80;;;;;;;;;;4990891;28;25021;-69
2023/10/06 06:31:18;;;;;;;18.00;6.30;;;;;;;;;;4995118;28;25073;-72
2023/10/06 06:33:47;;;;;;;14.18;4.85;;;;;;;;;;4999908;28;25074;-71
2023/10/06 06:36:13;;;;;;;17.48;5.90;;;;;;;;;;4969329;28;25086;-72
2023/10/06 06:38:39;;;;;;;11.93;5.90;;;;;;;;;;4995515;28;25051;-70
2023/10/06 06:41:06;;;;;;;15.38;5.35;;;;;;;;;;4981899;28;25052;-69
2023/10/06 06:43:34;;;;;;;14.15;6.07;;;;;;;;;;4990181;28;25069;-73
2023/10/06 06:46:00;;;;;;;11.82;6.53;;;;;;;;;;4958264;28;25083;-72
2023/10/06 06:48:26;;;;;;;16.33;6.40;;;;;;;;;;4973817;28;25065;-71
2023/10/06 06:50:52;;;;;;;22.35;6.82;;;;;;;;;;4972545;28;25074;-73
2023/10/06 06:53:18;;;;;;;17.30;6.22;;;;;;;;;;4983431;28;25099;-73
2023/10/06 06:55:45;;;;;;;14.75;6.68;;;;;;;;;;4985631;28;25481;-71
2023/10/06 06:58:11;;;;;;;19.92;6.05;;;;;;;;;;4981137;28;25134;-69
2023/10/06 07:00:39;;;;;;;13.32;5.70;;;;;;;;;;4992420;28;25071;-68
2023/10/06 07:03:06;;;;;;;18.27;6.80;;;;;;;;;;4988312;28;25046;-72
2023/10/06 07:05:34;;;;;;;13.00;5.22;;;;;;;;;;4979294;28;25095;-70
2023/10/06 07:08:03;;;;;;;16.17;6.80;;;;;;;;;;4988011;28;25059;-70
2023/10/06 07:10:30;;;;;;;15.88;6.78;;;;;;;;;;4984518;28;25065;-71
2023/10/06 07:12:59;;;;;;;13.57;6.95;;;;;;;;;;4996676;28;25089;-70
2023/10/06 07:15:29;;;;;;;14.00;6.00;;;;;;;;;;4989108;28;25079;-72
2023/10/06 07:17:55;;;;;;;11.45;5.40;;;;;;;;;;4986871;28;25058;-70
2023/10/06 07:20:24;;;;;;;11.45;5.78;;;;;;;;;;4998435;28;25053;-70
2023/10/06 07:22:52;;;;;;;17.38;5.80;;;;;;;;;;4989945;28;25075;-71
2023/10/06 07:25:19;;;;;;;18.52;6.57;;;;;;;;;;4997721;28;25045;-71
2023/10/06 07:27:48;;;;;;;16.85;5.78;;;;;;;;;;5003674;28;25056;-70
2023/10/06 07:30:14;;;;;;;19.02;6.20;;;;;;;;;;4997458;28;25072;-73
2023/10/06 07:32:44;;;;;;;15.90;6.38;;;;;;;;;;4989887;28;25079;-72
2023/10/06 07:35:11;;;;;;;15.77;5.55;;;;;;;;;;4974537;28;25106;-70
2023/10/06 07:37:37;;;;;;;17.33;5.55;;;;;;;;;;4988825;28;25080;-71
2023/10/06 07:40:05;;;;;;;16.08;5.72;;;;;;;;;;4970118;28;25117;-71
2023/10/06 07:42:32;;;;;;;15.20;5.93;;;;;;;;;;4970240;28;25070;-72
2023/10/06 07:44:58;;;;;;;12.80;5.65;;;;;;;;;;4977938;28;25127;-70
2023/10/06 07:47:24;;;;;;;13.80;5.32;;;;;;;;;;4978204;28;25068;-71
2023/10/06 07:49:50;;;;;;;11.15;4.70;;;;;;;;;;4962858;28;25062;-72
2023/10/06 07:52:21;;;;;;;12.70;4.45;;;;;;;;;;4981159;28;25069;-73
2023/10/06 07:54:49;;;;;;;13.90;4.88;;;;;;;;;;4965177;28;25044;-71
2023/10/06 07:57:15;;;;;;;15.25;4.45;;;;;;;;;;4980029;28;25085;-71
2023/10/06 07:59:42;;;;;;;11.05;4.55;;;;;;;;;;4977584;28;25071;-72
2023/10/06 08:02:08;;;;;;;14.63;4.65;;;;;;;;;;4996099;28;25070;-70
2023/10/06 08:04:34;;;;;;;11.55;4.05;;;;;;;;;;4983386;28;25060;-71
2023/10/06 08:07:00;;;;;;;7.72;4.38;;;;;;;;;;4986126;28;25063;-71
2023/10/06 08:09:27;;;;;;;15.43;6.43;;;;;;;;;;4958922;28;25061;-73
2023/10/06 08:11:55;;;;;;;12.48;4.85;;;;;;;;;;4989612;28;25077;-73
2023/10/06 08:14:24;;;;;;;11.55;5.55;;;;;;;;;;4959971;28;25089;-72
2023/10/06 08:16:50;;;;;;;8.30;3.90;;;;;;;;;;4986616;28;25073;-72
2023/10/06 08:19:16;;;;;;;13.85;4.65;;;;;;;;;;4982829;28;25077;-72
2023/10/06 08:21:42;;;;;;;14.98;5.80;;;;;;;;;;4974385;28;25075;-71
2023/10/06 08:24:09;;;;;;;16.40;4.93;;;;;;;;;;4968379;28;25108;-72
2023/10/06 08:26:36;;;;;;;11.20;4.80;;;;;;;;;;4988714;28;25063;-72
2023/10/06 08:29:04;;;;;;;12.18;5.28;;;;;;;;;;4960682;28;25113;-70
2023/10/06 08:31:30;;;;;;;18.20;5.15;;;;;;;;;;4970249;28;25201;-73
2023/10/06 08:33:58;;;;;;;12.93;5.18;;;;;;;;;;4976900;28;25061;-72
2023/10/06 08:36:24;;;;;;;14.70;5.07;;;;;;;;;;4980956;28;25141;-72
2023/10/06 08:38:51;;;;;;;13.27;5.03;;;;;;;;;;4989406;28;25271;-73
2023/10/06 08:41:26;;;;;;;12.35;4.47;;;;;;;;;;4980995;28;25051;-71
2023/10/06 08:43:53;;;;;;;9.77;5.03;;;;;;;;;;4985440;28;25049;-71
2023/10/06 08:46:19;;;;;;;16.60;5.78;;;;;;;;;;4988616;28;25099;-71
2023/10/06 08:48:46;;;;;;;14.18;4.93;;;;;;;;;;4983133;28;25109;-71
2023/10/06 08:51:14;;;;;;;11.52;4.68;;;;;;;;;;4962471;28;25144;-72
2023/10/06 08:53:40;;;;;;;11.68;4.43;;;;;;;;;;4981135;28;25148;-72
2023/10/06 08:56:07;;;;;;;12.85;4.93;;;;;;;;;;4982297;28;25101;-70
2023/10/06 08:58:35;;;;;;;13.48;5.30;;;;;;;;;;4961517;28;25067;-71
2023/10/06 09:01:04;;;;;;;17.30;4.82;;;;;;;;;;4977079;28;25113;-71
2023/10/06 09:03:30;;;;;;;13.68;5.07;;;;;;;;;;4964301;28;25066;-73
2023/10/06 09:05:56;;;;;;;13.80;5.47;;;;;;;;;;4960772;28;25059;-70
2023/10/06 09:08:22;;;;;;;23.83;5.72;;;;;;;;;;4986666;28;25098;-71
2023/10/06 09:10:49;;;;;;;14.25;4.82;;;;;;;;;;4979781;28;25086;-71
2023/10/06 09:13:16;;;;;;;12.68;4.40;;;;;;;;;;4988927;28;25138;-70
2023/10/06 09:15:43;;;;;;;13.13;4.47;;;;;;;;;;4985583;28;25122;-71
2023/10/06 09:18:19;;;;;;;12.60;4.85;;;;;;;;;;4974434;28;25074;-73
2023/10/06 09:20:47;;;;;;;14.07;4.88;;;;;;;;;;4987555;28;25078;-73
2023/10/06 09:23:29;;;;;;;13.02;5.10;;;;;;;;;;4962142;28;25053;-73
2023/10/06 09:25:55;;;;;;;9.00;4.53;;;;;;;;;;4966732;28;25082;-71
2023/10/06 09:28:21;;;;;;;13.15;5.20;;;;;;;;;;4956705;28;25066;-71
2023/10/06 09:30:56;;;;;;;10.65;4.78;;;;;;;;;;4964674;28;25051;-77
2023/10/06 09:33:24;;;;;;;16.42;5.50;;;;;;;;;;4975832;28;25081;-73
2023/10/06 09:36:11;;;;;;;10.68;4.80;;;;;;;;;;4979473;28;25159;-73
2023/10/06 09:38:38;;;;;;;9.45;4.60;;;;;;;;;;4969974;28;25080;-71
2023/10/06 09:41:06;;;;;;;10.35;4.75;;;;;;;;;;4980371;28;25063;-71
2023/10/06 09:43:34;;;;;;;16.70;4.80;;;;;;;;;;4961717;28;25051;-71
2023/10/06 09:46:06;;;;;;;12.27;4.88;;;;;;;;;;4984543;28;25061;-71
2023/10/06 09:48:33;;;;;;;14.75;5.22;;;;;;;;;;4979958;28;25114;-70
2023/10/06 09:51:01;;;;;;;12.63;5.03;;;;;;;;;;4959369;28;25059;-70
2023/10/06 09:53:27;;;;;;;12.15;4.80;;;;;;;;;;4972338;28;25044;-70
2023/10/06 09:55:54;;;;;;;13.18;4.90;;;;;;;;;;4970551;28;25111;-71
2023/10/06 09:58:19;;;;;;;10.55;4.72;;;;;;;;;;4982094;28;25051;-70
2023/10/06 10:00:46;;;;;;;14.40;5.10;;;;;;;;;;4973142;28;25073;-72
2023/10/06 10:03:12;;;;;;;14.75;5.30;;;;;;;;;;4999025;28;25098;-71
2023/10/06 10:05:38;;;;;;;14.85;4.53;;;;;;;;;;4993320;28;25073;-72
2023/10/06 10:08:05;;;;;;;14.00;4.93;;;;;;;;;;4978433;28;25150;-72
2023/10/06 10:10:32;;;;;;;12.95;4.32;;;;;;;;;;4997888;28;25057;-72
2023/10/06 10:13:10;;;;;;;15.27;4.50;;;;;;;;;;4985867;28;25062;-70
2023/10/06 10:16:09;;;;;;;13.88;4.07;;;;;;;;;;4996586;28;25062;-72
2023/10/06 10:18:34;;;;;;;10.82;4.38;;;;;;;;;;4972739;28;25094;-73
2023/10/06 10:21:01;;;;;;;12.98;4.88;;;;;;;;;;4995077;28;25083;-72
2023/10/06 10:23:30;;;;;;;20.42;4.85;;;;;;;;;;4971219;28;25094;-73
2023/10/06 10:26:15;;;;;;;18.05;4.10;;;;;;;;;;4993340;28;25067;-71
2023/10/06 10:28:42;;;;;;;12.25;4.20;;;;;;;;;;4990053;28;25080;-71
2023/10/06 10:31:17;;;;;;;11.10;5.95;;;;;;;;;;4983802;28;25064;-72
2023/10/06 10:33:46;;;;;;;13.55;4.72;;;;;;;;;;4968991;28;25141;-71
2023/10/06 10:36:12;;;;;;;13.95;5.30;;;;;;;;;;4983988;28;25064;-70
2023/10/06 10:38:39;;;;;;;19.23;5.47;;;;;;;;;;4993800;28;25067;-71
2023/10/06 10:41:08;;;;;;;9.38;5.28;;;;;;;;;;4992460;28;25090;-72
2023/10/06 10:43:37;;;;;;;11.23;5.10;;;;;;;;;;4995210;28;25076;-70
2023/10/06 10:46:08;;;;;;;18.52;5.47;;;;;;;;;;4991739;28;25107;-71
2023/10/06 10:48:37;;;;;;;19.48;6.28;;;;;;;;;;4989037;28;25106;-71
2023/10/06 10:51:13;;;;;;;15.75;5.93;;;;;;;;;;5002308;28;25048;-72
2023/10/06 10:53:41;;;;;;;19.05;5.25;;;;;;;;;;4990191;28;25076;-70
2023/10/06 10:56:13;;;;;;;15.70;5.18;;;;;;;;;;4987766;28;25062;-71
2023/10/06 10:58:45;;;;;;;16.70;6.03;;;;;;;;;;4989120;28;25141;-71
2023/10/06 11:01:12;;;;;;;;;;;;;;;;;;4990156;28;25094;-70
2023/10/06 11:03:38;;;;;;;13.27;5.45;;;;;;;;;;4987356;28;24071;-74
2023/10/06 11:06:04;;;;;;;13.63;4.50;;;;;;;;;;4986291;28;25076;-71
2023/10/06 11:08:38;;;;;;;20.17;6.30;;;;;;;;;;4970251;28;25120;-74
2023/10/06 11:11:06;;;;;;;12.15;5.57;;;;;;;;;;4977256;28;25123;-68
2023/10/06 11:13:32;;;;;;;18.02;5.32;;;;;;;;;;4980343;28;25069;-74
2023/10/06 11:16:04;;;;;;;15.05;5.78;;;;;;;;;;4964479;28;25045;-74
2023/10/06 11:18:41;;;;;;;17.75;5.90;;;;;;;;;;4959572;28;25138;-74
2023/10/06 11:21:23;;;;;;;13.85;5.70;;;;;;;;;;4980008;28;25166;-72
2023/10/06 11:23:49;;;;;;;12.90;5.50;;;;;;;;;;4981642;28;25093;-73
2023/10/06 11:26:26;;;;;;;14.50;5.38;;;;;;;;;;4981465;28;25106;-73
2023/10/06 11:28:52;;;;;;;12.80;5.20;;;;;;;;;;4971055;28;25091;-71
2023/10/06 11:31:18;;;;;;;15.15;5.38;;;;;;;;;;4974737;28;25101;-73
2023/10/06 11:33:45;;;;;;;13.32;5.63;;;;;;;;;;4975537;28;25079;-72
2023/10/06 11:36:11;;;;;;;12.38;5.72;;;;;;;;;;4987145;28;25042;-74
2023/10/06 11:38:38;;;;;;;12.75;6.53;;;;;;;;;;4970459;28;25144;-75
2023/10/06 11:41:04;;;;;;;16.55;6.22;;;;;;;;;;4975990;28;25064;-72
2023/10/06 11:43:31;;;;;;;20.75;5.97;;;;;;;;;;4973266;28;25076;-73
2023/10/06 11:46:02;;;;;;;18.45;5.68;;;;;;;;;;4958692;28;25078;-72
2023/10/06 11:48:29;;;;;;;14.98;5.70;;;;;;;;;;4972185;28;25071;-74
2023/10/06 11:50:59;;;;;;;15.77;5.60;;;;;;;;;;4980195;28;25183;-74
2023/10/06 11:53:26;;;;;;;13.23;5.45;;;;;;;;;;4977708;28;25078;-72
2023/10/06 11:55:53;;;;;;;18.40;5.38;;;;;;;;;;4979889;28;25077;-73
2023/10/06 11:58:36;;;;;;;17.55;5.93;;;;;;;;;;4971475;28;25144;-72
2023/10/06 12:01:03;;;;;;;11.07;4.97;;;;;;;;;;4970147;28;25105;-69
2023/10/06 12:03:42;;;;;;;14.38;4.90;;;;;;;;;;4996375;28;25089;-73
2023/10/06 12:06:12;;;;;;;13.88;4.68;;;;;;;;;;4987539;28;25067;-71
2023/10/06 12:08:52;;;;;;;9.50;4.50;;;;;;;;;;4974335;28;25162;-73
2023/10/06 12:11:19;;;;;;;10.82;5.63;;;;;;;;;;4980326;28;25066;-74
2023/10/06 12:13:45;;;;;;;16.38;5.25;;;;;;;;;;4983024;28;25073;-71
2023/10/06 12:16:13;;;;;;;15.02;5.75;;;;;;;;;;4981844;28;25078;-73
2023/10/06 12:18:39;;;;;;;16.65;6.70;;;;;;;;;;4983101;28;25061;-73
2023/10/06 12:21:06;;;;;;;14.88;5.50;;;;;;;;;;4978845;28;25069;-72
2023/10/06 12:23:33;;;;;;;12.13;6.28;;;;;;;;;;4983397;28;25064;-72
2023/10/06 12:25:59;;;;;;;12.13;6.10;;;;;;;;;;4979273;28;25069;-72
2023/10/06 12:28:25;;;;;;;13.68;5.68;;;;;;;;;;4955149;28;25046;-71
2023/10/06 12:30:53;;;;;;;13.43;5.10;;;;;;;;;;4990129;28;25089;-71
2023/10/06 12:33:20;;;;;;;13.40;5.65;;;;;;;;;;4977174;28;25041;-74
2023/10/06 12:35:46;;;;;;;12.45;5.13;;;;;;;;;;4979407;28;25073;-71
2023/10/06 12:38:14;;;;;;;16.13;6.05;;;;;;;;;;4970574;28;25075;-73
2023/10/06 12:40:40;;;;;;;18.83;6.03;;;;;;;;;;4972080;28;25087;-75
2023/10/06 12:43:07;;;;;;;13.05;4.32;;;;;;;;;;4960703;28;25083;-74
2023/10/06 12:45:33;;;;;;;13.77;5.00;;;;;;;;;;4966878;28;25058;-74
2023/10/06 12:48:02;;;;;;;15.63;5.05;;;;;;;;;;4972972;28;25064;-73
2023/10/06 12:50:29;;;;;;;12.00;4.57;;;;;;;;;;4978455;28;25081;-73
2023/10/06 12:52:55;;;;;;;15.60;5.15;;;;;;;;;;4985269;28;25146;-73
2023/10/06 12:55:22;;;;;;;15.63;5.60;;;;;;;;;;4976126;28;25056;-72
2023/10/06 12:57:52;;;;;;;13.90;4.20;;;;;;;;;;4964143;28;25181;-74
2023/10/06 13:00:19;;;;;;;13.55;4.90;;;;;;;;;;4976553;28;25053;-72
2023/10/06 13:02:47;;;;;;;21.77;5.40;;;;;;;;;;4974915;28;25069;-73
2023/10/06 13:05:16;;;;;;;9.50;4.78;;;;;;;;;;4972484;28;25073;-73
2023/10/06 13:07:46;;;;;;;15.98;4.85;;;;;;;;;;4977682;28;25074;-73
2023/10/06 13:10:13;;;;;;;14.80;5.43;;;;;;;;;;4975187;28;25068;-74
2023/10/06 13:12:39;;;;;;;10.30;4.38;;;;;;;;;;4985964;28;25066;-72
2023/10/06 13:15:07;;;;;;;12.52;5.63;;;;;;;;;;4991400;28;25105;-73
2023/10/06 13:17:33;;;;;;;16.05;5.78;;;;;;;;;;4980425;28;25055;-74
2023/10/06 13:20:00;;;;;;;16.10;4.93;;;;;;;;;;4990844;28;25064;-73
2023/10/06 13:22:27;;;;;;;14.00;5.38;;;;;;;;;;4999098;28;25054;-72
2023/10/06 13:24:57;;;;;;;13.48;5.57;;;;;;;;;;5005082;28;25070;-71
2023/10/06 13:27:24;;;;;;;15.00;5.00;;;;;;;;;;4998193;28;25063;-71
2023/10/06 13:29:51;;;;;;;14.15;4.90;;;;;;;;;;5000907;28;25051;-73
2023/10/06 13:32:18;;;;;;;14.27;5.30;;;;;;;;;;4999693;28;25099;-72
2023/10/06 13:34:44;;;;;;;12.43;5.57;;;;;;;;;;4990890;28;25153;-72
2023/10/06 13:37:10;;;;;;;15.85;5.97;;;;;;;;;;5000159;28;25054;-73
2023/10/06 13:39:36;;;;;;;11.63;4.93;;;;;;;;;;4976433;28;25067;-72
2023/10/06 13:42:03;;;;;;;10.30;5.38;;;;;;;;;;4993676;28;25072;-73
2023/10/06 13:44:29;;;;;;;16.05;6.03;;;;;;;;;;4974023;28;25064;-72
2023/10/06 13:46:55;;;;;;;15.00;6.13;;;;;;;;;;4977720;28;25055;-72
2023/10/06 13:49:22;;;;;;;12.52;6.00;;;;;;;;;;4995177;28;25064;-72
2023/10/06 13:51:48;;;;;;;14.32;6.47;;;;;;;;;;4996877;28;25055;-71
2023/10/06 13:54:15;;;;;;;20.40;7.10;;;;;;;;;;4985110;28;25135;-71
2023/10/06 13:56:41;;;;;;;17.02;8.50;;;;;;;;;;4988403;28;25072;-72
2023/10/06 13:59:09;;;;;;;15.75;7.07;;;;;;;;;;4978678;28;25055;-72
2023/10/06 14:04:23;;;;;;;13.95;7.22;;;;;;;;;;5008244;23;25056;-77
2023/10/06 14:06:50;;;;;;;19.02;6.80;;;;;;;;;;5012035;28;25059;-75
2023/10/06 14:09:23;;;;;;;16.80;6.78;;;;;;;;;;5011494;28;25050;-74
2023/10/06 14:11:52;;;;;;;18.73;10.15;;;;;;;;;;5008630;28;25153;-75
2023/10/06 14:17:02;;;;;;;12.82;6.55;;;;;;;;;;4989560;28;25062;-75
2023/10/06 14:19:28;;;;;;;13.68;6.68;;;;;;;;;;4972329;28;25108;-75
2023/10/06 14:21:54;;;;;;;13.60;7.47;;;;;;;;;;4990944;28;25138;-76
2023/10/06 14:24:20;;;;;;;15.38;8.43;;;;;;;;;;4992156;28;25137;-72
2023/10/06 14:26:46;;;;;;;16.42;7.00;;;;;;;;;;4995808;28;25058;-77
2023/10/06 14:29:15;;;;;;;18.73;7.50;;;;;;;;;;4992561;28;25107;-74
2023/10/06 14:31:58;;;;;;;16.88;7.47;;;;;;;;;;4990912;28;25064;-74
2023/10/06 14:34:56;;;;;;;15.38;7.32;;;;;;;;;;4996175;28;25131;-76
2023/10/06 14:37:42;;;;;;;11.95;7.30;;;;;;;;;;4993222;28;25064;-76
2023/10/06 14:48:27;;;;;;;14.57;8.00;;;;;;;;;;4980425;28;25127;-75
2023/10/06 14:50:59;;;;;;;16.13;8.18;;;;;;;;;;5001227;28;25050;-76
2023/10/06 14:53:26;;;;;;;13.13;7.07;;;;;;;;;;5004713;28;25071;-77
2023/10/06 14:55:53;;;;;;;13.73;7.50;;;;;;;;;;5003936;28;25103;-73
2023/10/06 14:58:19;;;;;;;15.82;7.97;;;;;;;;;;4998570;28;25097;-76
2023/10/06 15:00:46;;;;;;;11.10;7.22;;;;;;;;;;4998925;28;25055;-75